< < Back
Terminal Aerodrome Forecast


Current Version              Previous Versions:   1  2  3  4  5  6  7  8  9  

Terminal Aerodrome Forecast

856
FTUS42 KILM 121730
TAFFLO
TAF
KFLO 121730Z 1218/1318 04008KT P6SM SCT015 OVC035
      TEMPO 1218/1220 6SM -RA
     FM122000 34005KT P6SM OVC025
     FM130100 29004KT P6SM SCT025 BKN250
     FM131200 33008KT P6SM SKC
     FM131400 35014G24KT P6SM SKC=



Latest METAR

387
SAUS70 KWBC 130400 RRG
MTRFLO
METAR KFLO 130353Z AUTO 34005KT 10SM CLR M02/M03 A3008 RMK AO2 SLP184
T10171028


USA.gov is the U.S. government's official web portal to all federal, state and local government web resources and services.